createdAt,value
2018-04-13T00:01:31.640Z,99109.48
2018-04-13T00:03:59.064Z,99113.20
2018-04-13T00:06:26.471Z,99112.39
2018-04-13T00:08:53.888Z,99116.55
2018-04-13T00:11:21.298Z,99118.53
2018-04-13T00:13:48.852Z,99116.33
2018-04-13T00:16:16.256Z,99130.95
2018-04-13T00:18:43.664Z,99152.32
2018-04-13T00:21:11.075Z,99167.94
2018-04-13T00:23:38.480Z,99186.75
2018-04-13T00:26:05.901Z,99204.77
2018-04-13T00:28:33.329Z,99205.53
2018-04-13T00:31:00.852Z,99209.63
2018-04-13T00:33:28.252Z,99222.27
2018-04-13T00:35:55.660Z,99232.16
2018-04-13T00:38:23.084Z,99239.84
2018-04-13T00:40:50.501Z,99249.13
2018-04-13T00:43:17.941Z,99252.11
2018-04-13T00:45:45.328Z,99241.11
2018-04-13T00:48:12.737Z,99208.86
2018-04-13T00:50:40.164Z,99190.94
2018-04-13T00:53:19.317Z,99181.75
2018-04-13T00:55:46.869Z,99185.52
2018-04-13T00:58:14.276Z,99209.69
2018-04-13T01:00:41.676Z,99221.97
2018-04-13T01:03:09.079Z,99221.98
2018-04-13T01:05:36.475Z,99215.36
2018-04-13T01:08:03.884Z,99202.91
2018-04-13T01:10:31.280Z,99183.72
2018-04-13T01:12:58.694Z,99166.34
2018-04-13T01:15:26.088Z,99158.88
2018-04-13T01:17:53.500Z,99159.30
2018-04-13T01:20:20.911Z,99142.07
2018-04-13T01:22:48.305Z,99139.69
2018-04-13T01:25:15.712Z,99133.36
2018-04-13T01:27:43.136Z,99130.61
2018-04-13T01:30:10.696Z,99135.73
2018-04-13T01:32:38.098Z,99146.97
2018-04-13T01:35:05.494Z,99150.31
2018-04-13T01:37:32.912Z,99153.48
2018-04-13T01:40:00.319Z,99165.38
2018-04-13T01:42:27.724Z,99164.97
2018-04-13T01:44:55.136Z,99169.13
2018-04-13T01:47:22.563Z,99185.33
2018-04-13T01:49:49.980Z,99183.75
2018-04-13T01:52:17.386Z,99181.98
2018-04-13T01:54:44.800Z,99168.33
2018-04-13T01:57:12.213Z,99178.98
2018-04-13T01:59:39.620Z,99188.91
2018-04-13T02:02:07.023Z,99185.73
2018-04-13T02:04:34.416Z,99180.58
2018-04-13T02:07:01.821Z,99179.38
2018-04-13T02:09:29.240Z,99173.24
2018-04-13T02:11:56.647Z,99173.86
2018-04-13T02:14:24.064Z,99162.96
2018-04-13T02:16:51.486Z,99172.06
2018-04-13T02:19:18.903Z,99171.84
2018-04-13T02:21:46.322Z,99176.79
2018-04-13T02:24:13.731Z,99175.41
2018-04-13T02:26:41.139Z,99178.36
2018-04-13T02:29:08.535Z,99180.33
2018-04-13T02:31:35.952Z,99183.73
2018-04-13T02:34:03.364Z,99188.07
2018-04-13T02:36:30.772Z,99183.33
2018-04-13T02:38:58.163Z,99183.11
2018-04-13T02:41:25.573Z,99182.70
2018-04-13T02:43:52.971Z,99178.19
2018-04-13T02:46:20.387Z,99179.74
2018-04-13T02:48:47.876Z,99181.73
2018-04-13T02:51:15.274Z,99180.95
2018-04-13T02:53:42.684Z,99180.95
2018-04-13T02:56:10.085Z,99181.76
2018-04-13T02:58:37.528Z,99182.35
2018-04-13T03:01:04.935Z,99189.84
2018-04-13T03:03:32.327Z,99190.66
2018-04-13T03:05:59.758Z,99192.44
2018-04-13T03:08:27.144Z,99202.73
2018-04-13T03:10:54.564Z,99196.59
2018-04-13T03:13:21.959Z,99202.72
2018-04-13T03:15:49.377Z,99200.34
2018-04-13T03:18:16.772Z,99204.72
2018-04-13T03:20:44.192Z,99201.55
2018-04-13T03:23:11.589Z,99202.32
2018-04-13T03:25:38.990Z,99199.16
2018-04-13T03:28:06.388Z,99197.98
2018-04-13T03:30:33.820Z,99200.34
2018-04-13T03:33:01.216Z,99199.19
2018-04-13T03:35:28.632Z,99195.39
2018-04-13T03:37:56.063Z,99199.75
2018-04-13T03:40:23.476Z,99200.75
2018-04-13T03:42:50.904Z,99199.14
2018-04-13T03:45:18.303Z,99199.77
2018-04-13T03:47:45.709Z,99199.38
2018-04-13T03:50:13.136Z,99209.08
2018-04-13T03:52:40.539Z,99215.98
2018-04-13T03:55:07.960Z,99223.70
2018-04-13T03:57:35.363Z,99228.84
2018-04-13T04:00:02.945Z,99229.05
2018-04-13T04:02:35.223Z,99236.38
2018-04-13T04:05:02.632Z,99234.41
2018-04-13T04:07:30.044Z,99238.58
2018-04-13T04:09:57.448Z,99237.41
2018-04-13T04:12:24.848Z,99240.96
2018-04-13T04:14:52.260Z,99237.62
2018-04-13T04:17:19.648Z,99236.03
2018-04-13T04:19:59.795Z,99233.67
2018-04-13T04:22:38.837Z,99237.81
2018-04-13T04:25:17.976Z,99242.58
2018-04-13T04:27:45.390Z,99253.08
2018-04-13T04:30:12.798Z,99253.28
2018-04-13T04:32:40.217Z,99259.80
2018-04-13T04:35:07.624Z,99257.62
2018-04-13T04:37:35.031Z,99252.30
2018-04-13T04:40:02.442Z,99249.34
2018-04-13T04:42:29.867Z,99253.86
2018-04-13T04:44:57.252Z,99250.30
2018-04-13T04:47:25.014Z,99251.28
2018-04-13T04:49:52.419Z,99254.05
2018-04-13T04:52:19.824Z,99263.95
2018-04-13T04:54:47.252Z,99260.00
2018-04-13T04:57:14.646Z,99257.02
2018-04-13T04:59:42.086Z,99265.91
2018-04-13T05:02:09.452Z,99259.58
2018-04-13T05:04:36.859Z,99264.53
2018-04-13T05:07:04.258Z,99268.50
2018-04-13T05:09:31.664Z,99258.80
2018-04-13T05:11:59.063Z,99257.42
2018-04-13T05:14:26.476Z,99265.90
2018-04-13T05:16:53.869Z,99274.63
2018-04-13T05:19:21.284Z,99283.48
2018-04-13T05:21:48.671Z,99291.81
2018-04-13T05:24:16.084Z,99295.76
2018-04-13T05:26:43.492Z,99291.20
2018-04-13T05:29:10.974Z,99294.55
2018-04-13T05:31:38.352Z,99282.29
2018-04-13T05:34:05.795Z,99284.05
2018-04-13T05:36:33.192Z,99274.94
2018-04-13T05:39:00.608Z,99272.38
2018-04-13T05:41:28.011Z,99277.08
2018-04-13T05:43:55.432Z,99280.84
2018-04-13T05:46:22.847Z,99289.34
2018-04-13T05:48:50.269Z,99295.85
2018-04-13T05:51:17.681Z,99297.02
2018-04-13T05:53:45.100Z,99302.76
2018-04-13T05:56:12.499Z,99293.22
2018-04-13T05:58:39.921Z,99289.05
2018-04-13T06:01:07.336Z,99285.30
2018-04-13T06:03:34.768Z,99305.08
2018-04-13T06:06:02.204Z,99309.23
2018-04-13T06:08:29.606Z,99312.20
2018-04-13T06:10:57.011Z,99296.35
2018-04-13T06:13:24.451Z,99296.35
2018-04-13T06:15:51.855Z,99298.32
2018-04-13T06:18:19.280Z,99301.66
2018-04-13T06:20:46.692Z,99312.74
2018-04-13T06:23:14.104Z,99313.16
2018-04-13T06:25:41.533Z,99312.12
2018-04-13T06:28:08.960Z,99306.16
2018-04-13T06:30:36.364Z,99315.23
2018-04-13T06:33:03.789Z,99319.56
2018-04-13T06:35:31.202Z,99322.09
2018-04-13T06:37:58.620Z,99320.70
2018-04-13T06:40:26.028Z,99325.80
2018-04-13T06:42:53.448Z,99327.95
2018-04-13T06:45:20.880Z,99331.64
2018-04-13T06:47:48.285Z,99327.47
2018-04-13T06:50:15.708Z,99323.49
2018-04-13T06:52:43.123Z,99322.06
2018-04-13T06:55:10.577Z,99324.58
2018-04-13T06:57:37.980Z,99331.59
2018-04-13T07:00:05.424Z,99328.91
2018-04-13T07:02:32.849Z,99329.80
2018-04-13T07:05:00.252Z,99338.25
2018-04-13T07:07:27.699Z,99334.42
2018-04-13T07:09:55.108Z,99348.66
2018-04-13T07:12:22.516Z,99341.45
2018-04-13T07:14:49.937Z,99340.42
2018-04-13T07:17:17.362Z,99337.45
2018-04-13T07:19:44.778Z,99334.33
2018-04-13T07:22:12.213Z,99338.33
2018-04-13T07:24:39.621Z,99337.40
2018-04-13T07:27:07.045Z,99346.13
2018-04-13T07:29:34.454Z,99345.84
2018-04-13T07:32:01.892Z,99357.36
2018-04-13T07:34:29.318Z,99347.48
2018-04-13T07:36:57.024Z,99351.58
2018-04-13T07:39:24.528Z,99355.94
2018-04-13T07:41:51.918Z,99355.66
2018-04-13T07:44:19.331Z,99368.31
2018-04-13T07:46:46.747Z,99367.12
2018-04-13T07:49:14.184Z,99374.26
2018-04-13T07:51:41.606Z,99373.28
2018-04-13T07:54:09.032Z,99369.14
2018-04-13T07:56:36.455Z,99369.94
2018-04-13T07:59:03.889Z,99361.39
2018-04-13T08:01:31.301Z,99371.72
2018-04-13T08:03:58.733Z,99373.34
2018-04-13T08:06:26.160Z,99380.67
2018-04-13T08:08:53.579Z,99378.30
2018-04-13T08:11:20.998Z,99382.04
2018-04-13T08:13:48.632Z,99379.64
2018-04-13T08:16:16.039Z,99392.09
2018-04-13T08:18:43.460Z,99394.05
2018-04-13T08:21:10.871Z,99379.25
2018-04-13T08:23:38.300Z,99384.36
2018-04-13T08:26:05.736Z,99380.77
2018-04-13T08:28:33.154Z,99373.60
2018-04-13T08:31:00.565Z,99383.27
2018-04-13T08:33:28.011Z,99379.51
2018-04-13T08:35:55.413Z,99383.86
2018-04-13T08:38:22.846Z,99375.91
2018-04-13T08:40:50.528Z,99380.47
2018-04-13T08:43:17.986Z,99387.81
2018-04-13T08:45:45.432Z,99391.95
2018-04-13T08:48:12.796Z,99390.32
2018-04-13T08:50:40.234Z,99401.21
2018-04-13T08:53:07.644Z,99409.52
2018-04-13T08:55:35.076Z,99413.48
2018-04-13T08:58:02.521Z,99411.31
2018-04-13T09:00:29.935Z,99402.75
2018-04-13T09:02:57.356Z,99413.41
2018-04-13T09:05:24.768Z,99408.63
2018-04-13T09:07:52.228Z,99407.22
2018-04-13T09:10:19.652Z,99414.11
2018-04-13T09:12:47.089Z,99411.47
2018-04-13T09:15:14.497Z,99414.03
2018-04-13T09:17:41.917Z,99419.56
2018-04-13T09:20:09.337Z,99419.73
2018-04-13T09:22:36.747Z,99434.23
2018-04-13T09:25:04.152Z,99431.98
2018-04-13T09:27:31.875Z,99436.36
2018-04-13T09:29:59.280Z,99440.84
2018-04-13T09:32:26.694Z,99448.12
2018-04-13T09:34:54.118Z,99450.82
2018-04-13T09:37:21.540Z,99448.14
2018-04-13T09:39:48.945Z,99447.42
2018-04-13T09:42:16.363Z,99449.30
2018-04-13T09:44:43.774Z,99448.01
2018-04-13T09:47:11.187Z,99443.13
2018-04-13T09:49:38.598Z,99449.81
2018-04-13T09:52:06.010Z,99449.74
2018-04-13T09:54:33.431Z,99447.64
2018-04-13T09:57:00.848Z,99449.16
2018-04-13T09:59:28.955Z,99448.16
2018-04-13T10:01:56.369Z,99447.91
2018-04-13T10:04:23.796Z,99450.31
2018-04-13T10:06:51.265Z,99448.95
2018-04-13T10:09:18.697Z,99442.39
2018-04-13T10:11:46.137Z,99429.81
2018-04-13T10:14:13.560Z,99424.20
2018-04-13T10:16:40.977Z,99421.56
2018-04-13T10:19:08.398Z,99418.31
2018-04-13T10:21:35.819Z,99423.93
2018-04-13T10:24:03.291Z,99421.82
2018-04-13T10:26:30.719Z,99422.10
2018-04-13T10:28:58.168Z,99421.15
2018-04-13T10:31:25.596Z,99418.31
2018-04-13T10:33:53.052Z,99421.27
2018-04-13T10:36:20.503Z,99424.91
2018-04-13T10:38:47.934Z,99422.73
2018-04-13T10:41:15.343Z,99417.76
2018-04-13T10:43:42.803Z,99414.73
2018-04-13T10:46:10.232Z,99404.80
2018-04-13T10:48:37.669Z,99404.36
2018-04-13T10:51:05.098Z,99403.12
2018-04-13T10:53:32.528Z,99404.45
2018-04-13T10:56:01.401Z,99404.80
2018-04-13T10:58:28.851Z,99402.97
2018-04-13T11:00:56.282Z,99402.61
2018-04-13T11:03:23.724Z,99414.08
2018-04-13T11:05:51.143Z,99417.45
2018-04-13T11:08:18.557Z,99422.58
2018-04-13T11:10:45.983Z,99423.02
2018-04-13T11:13:13.387Z,99422.02
2018-04-13T11:15:40.840Z,99421.22
2018-04-13T11:18:08.249Z,99425.63
2018-04-13T11:20:35.663Z,99433.02
2018-04-13T11:23:03.072Z,99429.56
2018-04-13T11:25:30.532Z,99437.52
2018-04-13T11:27:57.941Z,99453.72
2018-04-13T11:30:25.360Z,99463.62
2018-04-13T11:32:52.770Z,99475.55
2018-04-13T11:35:20.197Z,99475.61
2018-04-13T11:37:47.599Z,99481.63
2018-04-13T11:40:15.057Z,99492.96
2018-04-13T11:42:43.381Z,99495.38
2018-04-13T11:45:10.857Z,99501.59
2018-04-13T11:47:38.261Z,99506.20
2018-04-13T11:50:05.691Z,99508.63
2018-04-13T11:52:33.104Z,99507.78
2018-04-13T11:55:00.511Z,99511.88
2018-04-13T11:57:27.927Z,99510.00
2018-04-13T11:59:55.357Z,99514.05
2018-04-13T12:02:22.759Z,99505.97
2018-04-13T12:04:50.207Z,99520.12
2018-04-13T12:07:19.880Z,99523.38
2018-04-13T12:09:47.293Z,99530.41
2018-04-13T12:12:14.715Z,99519.33
2018-04-13T12:14:42.149Z,99524.52
2018-04-13T12:17:09.565Z,99533.06
2018-04-13T12:19:36.990Z,99535.45
2018-04-13T12:22:04.404Z,99543.41
2018-04-13T12:24:31.828Z,99537.45
2018-04-13T12:26:59.255Z,99532.91
2018-04-13T12:29:26.700Z,99534.11
2018-04-13T12:31:54.115Z,99534.13
2018-04-13T12:34:21.581Z,99534.34
2018-04-13T12:36:49.056Z,99536.73
2018-04-13T12:39:16.483Z,99541.50
2018-04-13T12:41:43.912Z,99546.65
2018-04-13T12:44:11.376Z,99547.25
2018-04-13T12:46:38.793Z,99539.33
2018-04-13T12:49:06.209Z,99537.76
2018-04-13T12:51:33.623Z,99541.91
2018-04-13T12:54:01.137Z,99540.73
2018-04-13T12:56:28.556Z,99538.75
2018-04-13T12:58:56.013Z,99546.28
2018-04-13T13:01:23.448Z,99549.86
2018-04-13T13:03:51.308Z,99555.40
2018-04-13T13:06:18.727Z,99554.59
2018-04-13T13:08:46.154Z,99562.12
2018-04-13T13:11:13.606Z,99568.86
2018-04-13T13:13:41.012Z,99577.95
2018-04-13T13:16:08.433Z,99578.68
2018-04-13T13:18:35.906Z,99580.51
2018-04-13T13:21:03.332Z,99592.59
2018-04-13T13:23:30.743Z,99601.48
2018-04-13T13:25:58.195Z,99604.85
2018-04-13T13:28:25.614Z,99607.80
2018-04-13T13:30:53.040Z,99615.14
2018-04-13T13:33:20.459Z,99626.57
2018-04-13T13:35:47.881Z,99632.52
2018-04-13T13:38:15.293Z,99629.11
2018-04-13T13:40:42.739Z,99631.08
2018-04-13T13:43:10.155Z,99643.53
2018-04-13T13:45:37.571Z,99647.86
2018-04-13T13:48:04.988Z,99646.86
2018-04-13T13:50:32.685Z,99649.39
2018-04-13T13:53:00.095Z,99655.08
2018-04-13T13:55:27.500Z,99644.55
2018-04-13T13:57:54.919Z,99636.97
2018-04-13T14:00:22.351Z,99637.33
2018-04-13T14:02:49.755Z,99644.95
2018-04-13T14:05:17.180Z,99656.73
2018-04-13T14:07:44.579Z,99659.25
2018-04-13T14:10:12.016Z,99657.64
2018-04-13T14:12:39.431Z,99663.66
2018-04-13T14:15:06.851Z,99670.14
2018-04-13T14:17:34.283Z,99676.03
2018-04-13T14:20:01.752Z,99674.39
2018-04-13T14:22:29.185Z,99665.26
2018-04-13T14:24:56.612Z,99669.62
2018-04-13T14:27:24.021Z,99663.33
2018-04-13T14:29:51.471Z,99668.06
2018-04-13T14:32:18.880Z,99671.38
2018-04-13T14:34:46.317Z,99677.15
2018-04-13T14:37:13.723Z,99687.81
2018-04-13T14:39:41.153Z,99678.76
2018-04-13T14:42:08.563Z,99679.95
2018-04-13T14:44:35.995Z,99683.56
2018-04-13T14:47:03.399Z,99675.05
2018-04-13T14:49:30.823Z,99672.72
2018-04-13T14:51:58.252Z,99674.57
2018-04-13T14:54:25.670Z,99676.39
2018-04-13T14:56:53.132Z,99682.94
2018-04-13T14:59:20.580Z,99678.23
2018-04-13T15:01:48.014Z,99684.58
2018-04-13T15:04:15.419Z,99679.29
2018-04-13T15:06:42.844Z,99688.64
2018-04-13T15:09:10.259Z,99689.06
2018-04-13T15:11:37.681Z,99694.81
2018-04-13T15:14:05.091Z,99696.78
2018-04-13T15:16:32.516Z,99701.18
2018-04-13T15:18:59.938Z,99697.95
2018-04-13T15:21:27.373Z,99720.89
2018-04-13T15:23:54.830Z,99717.91
2018-04-13T15:26:22.235Z,99714.34
2018-04-13T15:28:49.660Z,99723.48
2018-04-13T15:31:17.076Z,99724.03
2018-04-13T15:33:44.509Z,99721.27
2018-04-13T15:36:11.927Z,99713.69
2018-04-13T15:38:39.343Z,99713.91
2018-04-13T15:41:06.759Z,99712.34
2018-04-13T15:43:34.180Z,99711.77
2018-04-13T15:46:01.593Z,99718.06
2018-04-13T15:48:29.008Z,99720.56
2018-04-13T15:50:56.469Z,99719.55
2018-04-13T15:53:23.904Z,99717.72
2018-04-13T15:55:51.315Z,99711.17
2018-04-13T15:58:18.740Z,99714.30
2018-04-13T16:00:46.140Z,99716.41
2018-04-13T16:03:13.560Z,99735.12
2018-04-13T16:05:40.988Z,99732.09
2018-04-13T16:08:08.421Z,99723.75
2018-04-13T16:10:35.819Z,99717.64
2018-04-13T16:13:03.421Z,99720.81
2018-04-13T16:15:30.845Z,99721.34
2018-04-13T16:17:58.248Z,99725.89
2018-04-13T16:20:25.683Z,99723.35
2018-04-13T16:22:53.104Z,99726.75
2018-04-13T16:25:20.540Z,99732.31
2018-04-13T16:27:47.951Z,99734.49
2018-04-13T16:30:15.396Z,99746.17
2018-04-13T16:32:42.826Z,99742.44
2018-04-13T16:35:10.260Z,99745.64
2018-04-13T16:37:37.680Z,99746.23
2018-04-13T16:40:05.119Z,99750.16
2018-04-13T16:42:32.536Z,99750.19
2018-04-13T16:44:59.960Z,99757.51
2018-04-13T16:47:27.391Z,99760.31
2018-04-13T16:49:54.836Z,99758.54
2018-04-13T16:52:22.265Z,99755.63
2018-04-13T16:54:49.691Z,99761.78
2018-04-13T16:57:17.116Z,99766.77
2018-04-13T16:59:44.540Z,99769.80
2018-04-13T17:02:11.952Z,99773.80
2018-04-13T17:04:39.384Z,99777.96
2018-04-13T17:07:06.833Z,99779.78
2018-04-13T17:09:34.279Z,99781.57
2018-04-13T17:12:01.689Z,99778.44
2018-04-13T17:14:29.116Z,99782.41
2018-04-13T17:16:56.552Z,99783.44
2018-04-13T17:19:23.975Z,99794.94
2018-04-13T17:21:51.396Z,99793.19
2018-04-13T17:24:18.855Z,99786.46
2018-04-13T17:26:46.316Z,99791.41
2018-04-13T17:29:13.735Z,99800.73
2018-04-13T17:31:41.159Z,99798.55
2018-04-13T17:34:08.573Z,99812.59
2018-04-13T17:36:36.000Z,99808.85
2018-04-13T17:39:03.408Z,99816.97
2018-04-13T17:41:30.835Z,99833.17
2018-04-13T17:43:58.244Z,99835.75
2018-04-13T17:46:25.681Z,99833.79
2018-04-13T17:48:53.106Z,99833.97
2018-04-13T17:51:20.513Z,99832.59
2018-04-13T17:53:47.930Z,99831.80
2018-04-13T17:56:15.348Z,99823.49
2018-04-13T17:58:42.775Z,99820.72
2018-04-13T18:01:10.200Z,99819.38
2018-04-13T18:03:37.644Z,99811.66
2018-04-13T18:06:05.076Z,99824.52
2018-04-13T18:08:32.488Z,99824.52
2018-04-13T18:10:59.891Z,99845.88
2018-04-13T18:13:27.337Z,99843.92
2018-04-13T18:15:54.744Z,99851.82
2018-04-13T18:18:22.164Z,99850.63
2018-04-13T18:20:49.592Z,99848.47
2018-04-13T18:23:17.016Z,99863.47
2018-04-13T18:25:44.465Z,99862.49
2018-04-13T18:28:11.880Z,99857.55
2018-04-13T18:30:39.328Z,99862.48
2018-04-13T18:33:06.745Z,99865.08
2018-04-13T18:35:34.177Z,99865.04
2018-04-13T18:38:01.584Z,99868.47
2018-04-13T18:40:29.017Z,99867.62
2018-04-13T18:42:56.419Z,99875.97
2018-04-13T18:45:23.858Z,99877.31
2018-04-13T18:47:51.305Z,99886.67
2018-04-13T18:50:18.731Z,99900.52
2018-04-13T18:52:46.154Z,99898.33
2018-04-13T18:55:13.571Z,99897.97
2018-04-13T18:57:41.010Z,99898.38
2018-04-13T19:00:08.412Z,99901.32
2018-04-13T19:02:35.837Z,99913.59
2018-04-13T19:05:03.248Z,99919.72
2018-04-13T19:07:30.671Z,99921.91
2018-04-13T19:09:58.095Z,99925.70
2018-04-13T19:12:25.523Z,99930.06
2018-04-13T19:14:52.935Z,99935.38
2018-04-13T19:17:20.489Z,99941.77
2018-04-13T19:19:47.927Z,99939.58
2018-04-13T19:22:15.401Z,99940.75
2018-04-13T19:24:42.816Z,99951.45
2018-04-13T19:27:10.236Z,99949.50
2018-04-13T19:29:37.654Z,99949.45
2018-04-13T19:32:05.076Z,99944.58
2018-04-13T19:34:32.484Z,99949.31
2018-04-13T19:36:59.900Z,99942.39
2018-04-13T19:39:27.312Z,99951.14
2018-04-13T19:41:54.727Z,99954.31
2018-04-13T19:44:22.149Z,99957.48
2018-04-13T19:46:49.572Z,99957.88
2018-04-13T19:49:16.971Z,99956.86
2018-04-13T19:51:44.391Z,99967.94
2018-04-13T19:54:11.800Z,99964.77
2018-04-13T19:56:39.223Z,99971.73
2018-04-13T19:59:06.644Z,99970.56
2018-04-13T20:01:34.065Z,99973.16
2018-04-13T20:04:01.558Z,99978.08
2018-04-13T20:06:29.014Z,99978.51
2018-04-13T20:08:56.421Z,99978.52
2018-04-13T20:11:23.845Z,99981.30
2018-04-13T20:13:51.267Z,99990.00
2018-04-13T20:16:21.483Z,99994.14
2018-04-13T20:18:48.900Z,100005.77
2018-04-13T20:21:16.326Z,100002.59
2018-04-13T20:23:43.757Z,100006.38
2018-04-13T20:26:11.344Z,100010.14
2018-04-13T20:28:38.750Z,100014.30
2018-04-13T20:31:06.179Z,100020.45
2018-04-13T20:33:33.611Z,100016.30
2018-04-13T20:36:01.101Z,100016.31
2018-04-13T20:38:28.599Z,100021.66
2018-04-13T20:40:55.957Z,100017.52
2018-04-13T20:43:23.385Z,100033.37
2018-04-13T20:45:50.797Z,100040.92
2018-04-13T20:48:18.260Z,100038.77
2018-04-13T20:50:45.668Z,100048.11
2018-04-13T20:53:13.116Z,100046.14
2018-04-13T20:55:40.529Z,100048.77
2018-04-13T20:58:08.016Z,100050.74
2018-04-13T21:00:35.424Z,100048.38
2018-04-13T21:03:02.864Z,100044.81
2018-04-13T21:05:30.269Z,100044.26
2018-04-13T21:07:57.700Z,100054.72
2018-04-13T21:10:25.117Z,100047.17
2018-04-13T21:12:52.541Z,100051.95
2018-04-13T21:15:19.956Z,100051.55
2018-04-13T21:17:47.396Z,100060.84
2018-04-13T21:20:14.813Z,100075.72
2018-04-13T21:22:42.255Z,100072.52
2018-04-13T21:25:09.662Z,100077.06
2018-04-13T21:27:37.108Z,100069.34
2018-04-13T21:30:04.526Z,100074.69
2018-04-13T21:32:32.016Z,100076.08
2018-04-13T21:34:59.475Z,100074.11
2018-04-13T21:37:26.920Z,100072.11
2018-04-13T21:39:54.349Z,100075.45
2018-04-13T21:42:21.801Z,100077.20
2018-04-13T21:44:49.276Z,100076.78
2018-04-13T21:47:16.761Z,100076.57
2018-04-13T21:49:44.193Z,100076.78
2018-04-13T21:52:12.044Z,100086.48
2018-04-13T21:54:39.473Z,100090.59
2018-04-13T21:57:06.924Z,100100.10
2018-04-13T21:59:34.352Z,100104.25
2018-04-13T22:02:01.769Z,100105.64
2018-04-13T22:04:29.204Z,100106.41
2018-04-13T22:06:56.636Z,100110.34
2018-04-13T22:09:24.076Z,100115.83
2018-04-13T22:11:51.496Z,100123.50
2018-04-13T22:14:31.119Z,100129.22
2018-04-13T22:16:58.537Z,100126.84
2018-04-13T22:19:25.968Z,100134.29
2018-04-13T22:21:53.388Z,100136.42
2018-04-13T22:24:20.801Z,100135.80
2018-04-13T22:26:48.216Z,100136.95
2018-04-13T22:29:15.649Z,100135.91
2018-04-13T22:31:43.070Z,100138.29
2018-04-13T22:34:10.489Z,100137.70
2018-04-13T22:36:37.908Z,100150.68
2018-04-13T22:39:06.152Z,100153.39
2018-04-13T22:41:33.634Z,100154.77
2018-04-13T22:44:01.271Z,100159.89
2018-04-13T22:46:28.730Z,100168.77
2018-04-13T22:48:56.308Z,100173.66
2018-04-13T22:51:23.736Z,100179.91
2018-04-13T22:53:51.145Z,100192.94
2018-04-13T22:56:18.579Z,100191.12
2018-04-13T22:58:45.988Z,100202.55
2018-04-13T23:01:13.414Z,100202.13
2018-04-13T23:03:40.832Z,100202.23
2018-04-13T23:06:08.260Z,100205.12
2018-04-13T23:08:35.671Z,100209.41
2018-04-13T23:11:03.114Z,100207.73
2018-04-13T23:13:30.561Z,100212.15
2018-04-13T23:15:58.018Z,100217.48
2018-04-13T23:18:25.457Z,100225.31
2018-04-13T23:20:52.884Z,100227.76
2018-04-13T23:23:20.321Z,100229.86
2018-04-13T23:25:47.752Z,100223.69
2018-04-13T23:28:15.176Z,100227.61
2018-04-13T23:30:42.608Z,100228.80
2018-04-13T23:33:10.028Z,100230.34
2018-04-13T23:35:37.476Z,100228.70
2018-04-13T23:38:04.887Z,100224.91
2018-04-13T23:40:32.306Z,100222.90
2018-04-13T23:42:59.736Z,100226.03
2018-04-13T23:45:27.188Z,100224.83
2018-04-13T23:47:54.619Z,100226.38
2018-04-13T23:50:22.036Z,100230.70
2018-04-13T23:52:49.460Z,100232.88
2018-04-13T23:55:16.880Z,100233.84
2018-04-13T23:57:44.312Z,100244.86
